Time;durP1;ratioP1;P1;durP2;ratioP2;P2;SDS_P1;SDS_P2;PMS_P1;PMS_P2;Temp;Humidity;BMP_temperature;BMP_pressure;BME280_temperature;BME280_humidity;BME280_pressure;Samples;Min_cycle;Max_cycle;Signal;HPM_P1;HPM_P2
2021/06/13 00:01:19;;;;;;;6.05;4.60;;;17.80;99.90;;;;;;4155402;28;20095;-65
2021/06/13 00:03:20;;;;;;;5.28;3.85;;;17.70;99.90;;;;;;4138282;28;20096;-66
2021/06/13 00:05:21;;;;;;;6.90;3.72;;;17.80;99.90;;;;;;4155578;28;20041;-66
2021/06/13 00:07:22;;;;;;;10.35;3.80;;;17.80;99.90;;;;;;4156399;28;20041;-65
2021/06/13 00:09:23;;;;;;;4.82;3.70;;;17.70;99.90;;;;;;4155634;28;20080;-66
2021/06/13 00:11:25;;;;;;;4.13;3.70;;;17.70;99.90;;;;;;4155652;28;20053;-65
2021/06/13 00:13:27;;;;;;;4.13;3.13;;;17.70;99.90;;;;;;4156071;28;20029;-66
2021/06/13 00:15:28;;;;;;;7.43;3.75;;;17.70;99.90;;;;;;4155788;28;20358;-66
2021/06/13 00:17:29;;;;;;;4.63;3.85;;;17.70;99.90;;;;;;4156375;28;20077;-66
2021/06/13 00:19:30;;;;;;;4.88;3.85;;;17.80;99.90;;;;;;4155169;28;20038;-66
2021/06/13 00:21:31;;;;;;;7.63;3.60;;;17.80;99.90;;;;;;4155962;28;20043;-66
2021/06/13 00:23:33;;;;;;;4.47;3.58;;;17.80;99.90;;;;;;4155861;28;20032;-66
2021/06/13 00:25:34;;;;;;;4.65;3.35;;;17.80;99.90;;;;;;4155709;28;20079;-66
2021/06/13 00:27:35;;;;;;;6.93;4.20;;;17.80;99.90;;;;;;4155950;28;20037;-66
2021/06/13 00:29:36;;;;;;;8.65;4.43;;;17.90;99.90;;;;;;4155459;28;20421;-66
2021/06/13 00:31:37;;;;;;;5.70;3.55;;;17.90;99.90;;;;;;4155910;28;20033;-66
2021/06/13 00:33:38;;;;;;;5.90;3.08;;;17.90;99.90;;;;;;4137974;28;20080;-66
2021/06/13 00:35:40;;;;;;;6.32;2.90;;;17.90;99.90;;;;;;4137999;28;20037;-66
2021/06/13 00:37:41;;;;;;;2.95;2.58;;;17.90;99.90;;;;;;4155973;28;20029;-66
2021/06/13 00:39:42;;;;;;;2.97;2.78;;;18.00;99.90;;;;;;4155661;28;20557;-66
2021/06/13 00:41:43;;;;;;;5.97;2.42;;;17.90;99.90;;;;;;4155209;28;20033;-66
2021/06/13 00:43:45;;;;;;;6.72;2.92;;;18.00;99.90;;;;;;4155309;28;20041;-66
2021/06/13 00:45:46;;;;;;;2.47;2.28;;;18.00;99.90;;;;;;4155612;28;20029;-65
2021/06/13 00:47:47;;;;;;;3.83;3.13;;;18.00;99.90;;;;;;4137764;28;20450;-66
2021/06/13 00:49:49;;;;;;;3.60;2.83;;;18.00;99.90;;;;;;4155695;28;20083;-66
2021/06/13 00:51:51;;;;;;;3.28;2.42;;;18.10;99.90;;;;;;4137817;28;20473;-66
2021/06/13 00:53:52;;;;;;;5.85;2.40;;;18.10;99.90;;;;;;4137143;28;20729;-66
2021/06/13 00:55:53;;;;;;;2.63;2.42;;;18.10;99.90;;;;;;4155817;28;20563;-66
2021/06/13 00:57:54;;;;;;;3.38;2.15;;;18.10;99.90;;;;;;4154795;28;20964;-66
2021/06/13 00:59:55;;;;;;;3.85;2.70;;;18.10;99.90;;;;;;4155620;28;20639;-67
2021/06/13 01:01:57;;;;;;;3.38;2.17;;;18.10;99.90;;;;;;4155372;28;20087;-66
2021/06/13 01:03:58;;;;;;;3.03;2.75;;;18.10;99.90;;;;;;4155614;28;20451;-65
2021/06/13 01:05:59;;;;;;;10.00;2.80;;;18.10;99.90;;;;;;4156123;28;20029;-66
2021/06/13 01:08:22;;;;;;;2.30;2.10;;;18.10;99.90;;;;;;4155305;28;20042;-66
2021/06/13 01:10:23;;;;;;;2.25;1.98;;;18.10;99.90;;;;;;4155826;28;20045;-66
2021/06/13 01:12:47;;;;;;;2.58;2.15;;;18.10;99.90;;;;;;4155480;28;20033;-66
2021/06/13 01:15:00;;;;;;;3.78;2.20;;;18.10;99.90;;;;;;4154743;28;20107;-66
2021/06/13 01:17:14;;;;;;;3.63;2.33;;;18.00;99.90;;;;;;4155617;28;20037;-66
2021/06/13 01:19:44;;;;;;;2.83;2.30;;;18.00;99.90;;;;;;4154627;28;20116;-66
2021/06/13 01:22:23;;;;;;;2.88;2.25;;;18.00;99.90;;;;;;4155349;28;20056;-66
2021/06/13 01:24:42;;;;;;;6.03;2.15;;;17.90;99.90;;;;;;4154490;28;20045;-66
2021/06/13 01:27:22;;;;;;;2.72;2.53;;;17.70;99.90;;;;;;4155226;28;20490;-67
2021/06/13 01:29:53;;;;;;;3.67;2.55;;;17.70;99.90;;;;;;4155144;28;20042;-66
2021/06/13 01:31:58;;;;;;;2.70;1.98;;;17.70;99.90;;;;;;4153928;28;20045;-66
2021/06/13 01:34:02;;;;;;;2.45;2.25;;;17.70;99.90;;;;;;4155081;28;20029;-66
2021/06/13 01:36:04;;;;;;;3.67;2.47;;;17.60;99.90;;;;;;4155671;28;20533;-66
2021/06/13 01:38:08;;;;;;;3.53;2.72;;;17.60;99.90;;;;;;4154811;28;20071;-65
2021/06/13 01:40:12;;;;;;;2.67;2.42;;;17.60;99.90;;;;;;4154444;28;20053;-66
2021/06/13 01:42:15;;;;;;;2.85;2.65;;;17.60;99.90;;;;;;4155130;28;20424;-65
2021/06/13 01:44:18;;;;;;;2.58;2.35;;;17.50;99.90;;;;;;4155586;28;20029;-66
2021/06/13 01:46:19;;;;;;;2.72;2.22;;;17.50;99.90;;;;;;4155471;28;20038;-65
2021/06/13 01:48:22;;;;;;;2.95;2.60;;;17.50;99.90;;;;;;4158217;28;20049;-66
2021/06/13 01:50:26;;;;;;;2.70;2.45;;;17.40;99.90;;;;;;4158233;28;20021;-65
2021/06/13 01:52:28;;;;;;;3.60;2.47;;;17.50;99.90;;;;;;4157845;28;20436;-66
2021/06/13 01:54:32;;;;;;;4.90;2.60;;;17.50;99.90;;;;;;4158103;28;20025;-65
2021/06/13 01:56:37;;;;;;;3.45;2.78;;;17.40;99.90;;;;;;4158001;28;20087;-65
2021/06/13 01:58:40;;;;;;;3.05;2.63;;;17.40;99.90;;;;;;4140104;28;20088;-66
2021/06/13 02:00:46;;;;;;;5.13;2.95;;;17.40;99.90;;;;;;4158007;28;20025;-65
2021/06/13 02:02:53;;;;;;;3.10;2.80;;;17.30;99.90;;;;;;4157734;28;20088;-65
2021/06/13 02:04:54;;;;;;;6.03;2.90;;;17.30;99.90;;;;;;4157781;28;20025;-65
2021/06/13 02:06:58;;;;;;;4.03;2.95;;;17.30;99.90;;;;;;4158063;28;20071;-65
2021/06/13 02:09:03;;;;;;;3.17;2.78;;;17.30;99.90;;;;;;4157729;28;20018;-65
2021/06/13 02:11:08;;;;;;;3.30;3.00;;;17.20;99.90;;;;;;4157699;28;20053;-65
2021/06/13 02:13:12;;;;;;;3.28;2.80;;;17.20;99.90;;;;;;4157675;28;20018;-65
2021/06/13 02:15:18;;;;;;;3.30;2.85;;;17.20;99.90;;;;;;4157411;28;20753;-65
2021/06/13 02:17:20;;;;;;;4.22;3.10;;;17.20;99.90;;;;;;4157508;28;20076;-65
2021/06/13 02:19:25;;;;;;;4.47;2.95;;;17.20;99.90;;;;;;4158119;28;20021;-65
2021/06/13 02:21:27;;;;;;;7.57;2.95;;;17.20;99.90;;;;;;4157047;28;20080;-64
2021/06/13 02:23:29;;;;;;;2.95;2.42;;;17.20;99.90;;;;;;4157223;28;20075;-64
2021/06/13 02:25:30;;;;;;;4.75;3.35;;;17.20;99.90;;;;;;4157267;28;20029;-64
2021/06/13 02:27:33;;;;;;;3.13;2.28;;;17.20;99.90;;;;;;4157412;28;20088;-64
2021/06/13 02:29:38;;;;;;;3.15;2.33;;;17.30;99.90;;;;;;4157628;28;20057;-64
2021/06/13 02:31:42;;;;;;;2.08;1.95;;;17.30;99.90;;;;;;4157582;28;20034;-65
2021/06/13 02:33:45;;;;;;;3.90;2.95;;;17.40;99.90;;;;;;4156627;28;20038;-65
2021/06/13 02:35:49;;;;;;;4.95;2.65;;;17.40;99.90;;;;;;4157381;28;20037;-65
2021/06/13 02:37:52;;;;;;;2.60;2.40;;;17.40;99.90;;;;;;4156853;28;20440;-65
2021/06/13 02:39:53;;;;;;;3.70;2.53;;;17.40;99.90;;;;;;4157440;28;20071;-65
2021/06/13 02:41:56;;;;;;;4.05;2.92;;;17.40;99.90;;;;;;4157449;28;20034;-65
2021/06/13 02:43:57;;;;;;;2.80;2.60;;;17.40;99.90;;;;;;4157070;28;20029;-66
2021/06/13 02:45:58;;;;;;;2.92;2.63;;;17.40;99.90;;;;;;4156608;28;20037;-65
2021/06/13 02:48:00;;;;;;;3.28;2.88;;;17.40;99.90;;;;;;4156766;28;20107;-65
2021/06/13 02:50:04;;;;;;;4.05;2.40;;;17.40;99.90;;;;;;4156555;28;20115;-65
2021/06/13 02:52:23;;;;;;;3.58;2.30;;;17.40;99.90;;;;;;4157030;28;20091;-65
2021/06/13 02:54:26;;;;;;;3.30;2.72;;;17.40;99.90;;;;;;4156947;28;20013;-66
2021/06/13 02:56:53;;;;;;;3.15;2.50;;;17.40;99.90;;;;;;4156763;28;20030;-66
2021/06/13 02:59:09;;;;;;;2.70;2.50;;;17.40;99.90;;;;;;4156700;28;20029;-66
2021/06/13 03:01:14;;;;;;;2.55;2.33;;;17.40;99.90;;;;;;4156928;28;20080;-66
2021/06/13 03:03:18;;;;;;;3.42;2.20;;;17.40;99.90;;;;;;4157105;28;20021;-66
2021/06/13 03:05:24;;;;;;;2.78;2.50;;;17.50;99.90;;;;;;4157170;28;20021;-66
2021/06/13 03:07:25;;;;;;;4.03;2.40;;;17.50;99.90;;;;;;4157199;28;20545;-66
2021/06/13 03:09:31;;;;;;;2.97;2.67;;;17.60;99.90;;;;;;4156605;28;20041;-66
2021/06/13 03:11:33;;;;;;;3.40;2.42;;;17.70;99.90;;;;;;4156893;28;20127;-67
2021/06/13 03:13:39;;;;;;;2.60;2.40;;;17.70;99.90;;;;;;4157187;28;20095;-65
2021/06/13 03:15:41;;;;;;;2.60;2.40;;;17.70;99.90;;;;;;4156685;28;20026;-66
2021/06/13 03:17:43;;;;;;;2.50;2.30;;;17.80;99.90;;;;;;4156027;28;20053;-65
2021/06/13 03:19:47;;;;;;;3.08;2.60;;;17.80;99.90;;;;;;4156164;28;20045;-66
2021/06/13 03:21:49;;;;;;;2.05;1.95;;;17.70;99.90;;;;;;4156839;28;20029;-66
2021/06/13 03:23:51;;;;;;;1.95;1.85;;;17.60;99.90;;;;;;4156745;28;20029;-66
2021/06/13 03:25:54;;;;;;;1.98;1.88;;;17.50;99.90;;;;;;4156605;28;20095;-66
2021/06/13 03:27:57;;;;;;;6.47;2.97;;;17.30;99.90;;;;;;4156442;28;20103;-65
2021/06/13 03:29:59;;;;;;;5.15;3.83;;;17.00;99.90;;;;;;4138784;28;20068;-65
2021/06/13 03:32:02;;;;;;;5.32;4.03;;;16.80;99.90;;;;;;4156584;28;20037;-65
2021/06/13 03:34:05;;;;;;;3.72;3.00;;;16.70;99.90;;;;;;4156660;28;20087;-66
2021/06/13 03:36:07;;;;;;;5.68;2.47;;;16.60;99.90;;;;;;4156314;28;20026;-64
2021/06/13 03:38:09;;;;;;;3.17;1.38;;;16.50;99.90;;;;;;4157031;28;20029;-64
2021/06/13 03:40:11;;;;;;;1.70;1.30;;;16.40;99.90;;;;;;4155320;28;20037;-64
2021/06/13 03:42:14;;;;;;;1.58;1.48;;;16.30;99.90;;;;;;4156567;28;20073;-64
2021/06/13 03:44:15;;;;;;;2.25;0.80;;;16.20;99.90;;;;;;4155890;28;20029;-65
2021/06/13 03:46:18;;;;;;;0.82;0.80;;;16.10;99.90;;;;;;4156001;28;20622;-66
2021/06/13 03:48:22;;;;;;;1.75;1.10;;;16.00;99.90;;;;;;4155918;28;20057;-65
2021/06/13 03:50:23;;;;;;;1.33;1.10;;;16.00;99.90;;;;;;4155867;28;20076;-65
2021/06/13 03:52:26;;;;;;;1.15;0.95;;;15.90;99.90;;;;;;4156239;28;20029;-66
2021/06/13 03:54:27;;;;;;;2.92;1.10;;;15.80;99.90;;;;;;4138468;28;20156;-65
2021/06/13 03:56:36;;;;;;;1.00;0.80;;;15.70;99.90;;;;;;4156163;28;20038;-64
2021/06/13 03:58:37;;;;;;;1.05;0.70;;;15.70;99.90;;;;;;4155858;28;20037;-64
2021/06/13 04:00:39;;;;;;;3.08;0.95;;;15.60;99.90;;;;;;4155970;28;20084;-64
2021/06/13 04:02:46;;;;;;;1.20;0.90;;;15.60;99.90;;;;;;4156525;28;20029;-65
2021/06/13 04:04:53;;;;;;;2.08;1.05;;;15.50;99.90;;;;;;4156024;28;20087;-65
2021/06/13 04:06:55;;;;;;;1.88;0.63;;;15.40;99.90;;;;;;4156250;28;20045;-65
2021/06/13 04:08:56;;;;;;;0.70;0.70;;;15.40;99.90;;;;;;4155749;28;20059;-64
2021/06/13 04:10:58;;;;;;;4.00;0.90;;;15.40;99.90;;;;;;4155282;28;20059;-64
2021/06/13 04:13:01;;;;;;;0.80;0.77;;;15.40;99.90;;;;;;4156226;28;20076;-65
2021/06/13 04:15:04;;;;;;;1.00;0.50;;;15.30;99.90;;;;;;4155003;28;20403;-65
2021/06/13 04:17:05;;;;;;;0.80;0.70;;;15.30;99.90;;;;;;4156035;28;20079;-65
2021/06/13 04:19:09;;;;;;;1.13;0.60;;;15.30;99.90;;;;;;4154991;28;20445;-65
2021/06/13 04:21:13;;;;;;;1.33;0.63;;;15.20;99.90;;;;;;4156077;28;20083;-65
2021/06/13 04:23:15;;;;;;;0.67;0.40;;;15.20;99.90;;;;;;4155487;28;20084;-65
2021/06/13 04:25:17;;;;;;;1.07;0.80;;;15.10;99.90;;;;;;4155778;28;20025;-65
2021/06/13 04:27:23;;;;;;;1.60;0.43;;;15.10;99.90;;;;;;4155710;28;20091;-66
2021/06/13 04:29:25;;;;;;;1.70;0.53;;;15.10;99.90;;;;;;4155503;28;20045;-66
2021/06/13 04:31:29;;;;;;;1.40;0.70;;;15.10;99.90;;;;;;4137684;28;20046;-66
2021/06/13 04:33:31;;;;;;;1.43;0.67;;;15.10;99.90;;;;;;4156066;28;20029;-66
2021/06/13 04:35:32;;;;;;;0.93;0.70;;;15.10;99.90;;;;;;4155776;28;20049;-66
2021/06/13 04:37:33;;;;;;;1.10;0.73;;;15.10;99.90;;;;;;4156251;28;20029;-66
2021/06/13 04:39:36;;;;;;;3.27;1.30;;;15.10;99.90;;;;;;4137745;28;20041;-66
2021/06/13 04:41:37;;;;;;;1.50;0.70;;;15.10;99.90;;;;;;4138447;28;20489;-66
2021/06/13 04:43:38;;;;;;;1.73;0.73;;;15.10;99.90;;;;;;4156005;28;20045;-66
2021/06/13 04:45:40;;;;;;;0.67;0.60;;;15.10;99.90;;;;;;4155107;28;20099;-66
2021/06/13 04:47:41;;;;;;;0.97;0.63;;;15.00;99.90;;;;;;4137869;28;20026;-66
2021/06/13 04:49:44;;;;;;;0.90;0.60;;;15.00;99.90;;;;;;4155716;28;20030;-64
2021/06/13 04:51:49;;;;;;;1.60;0.60;;;15.00;99.90;;;;;;4137471;28;20050;-65
2021/06/13 04:54:13;;;;;;;1.80;0.50;;;14.90;99.90;;;;;;4155168;28;20076;-65
2021/06/13 04:56:29;;;;;;;1.90;0.70;;;14.80;99.90;;;;;;4122508;28;20444;-65
2021/06/13 04:58:30;;;;;;;1.17;0.80;;;14.80;99.90;;;;;;4154964;28;20083;-65
2021/06/13 05:00:31;;;;;;;1.23;0.77;;;14.70;99.90;;;;;;4155258;28;20493;-66
2021/06/13 05:02:33;;;;;;;2.47;0.77;;;14.70;99.90;;;;;;4155387;28;20034;-66
2021/06/13 05:04:34;;;;;;;0.90;0.90;;;14.70;99.90;;;;;;4154825;28;20100;-66
2021/06/13 05:06:36;;;;;;;2.00;0.87;;;14.70;99.90;;;;;;4155597;28;20578;-67
2021/06/13 05:08:40;;;;;;;1.53;1.00;;;14.70;99.90;;;;;;4155091;28;20075;-67
2021/06/13 05:10:41;;;;;;;0.80;0.80;;;14.80;99.90;;;;;;4154973;28;20046;-66
2021/06/13 05:12:47;;;;;;;0.87;0.50;;;14.80;99.90;;;;;;4155879;28;20395;-65
2021/06/13 05:14:48;;;;;;;0.73;0.60;;;14.90;99.90;;;;;;4155133;28;20022;-66
2021/06/13 05:16:49;;;;;;;1.10;1.00;;;14.90;99.90;;;;;;4155589;28;20452;-66
2021/06/13 05:18:51;;;;;;;1.10;1.00;;;14.90;99.90;;;;;;4155686;28;20037;-65
2021/06/13 05:20:54;;;;;;;1.50;0.50;;;14.90;99.90;;;;;;4156328;28;20103;-65
2021/06/13 05:23:02;;;;;;;0.50;0.43;;;14.90;99.90;;;;;;4158590;28;20555;-65
2021/06/13 05:25:03;;;;;;;4.30;0.80;;;14.90;99.90;;;;;;4158393;28;20033;-65
2021/06/13 05:27:05;;;;;;;8.50;2.20;;;14.90;99.90;;;;;;4158076;28;20045;-66
2021/06/13 05:29:06;;;;;;;0.73;0.67;;;14.90;99.90;;;;;;4158557;28;20052;-65
2021/06/13 05:31:08;;;;;;;1.10;0.80;;;14.90;99.90;;;;;;4158665;28;20033;-65
2021/06/13 05:33:10;;;;;;;3.37;0.90;;;14.90;99.90;;;;;;4157449;28;20042;-65
2021/06/13 05:35:11;;;;;;;2.50;1.10;;;15.00;99.90;;;;;;4158096;28;20057;-65
2021/06/13 05:37:13;;;;;;;3.97;1.23;;;15.10;99.90;;;;;;4158652;28;20037;-65
2021/06/13 05:39:15;;;;;;;1.30;0.70;;;15.10;99.90;;;;;;4157503;28;20111;-65
2021/06/13 05:41:16;;;;;;;1.63;1.00;;;15.00;99.90;;;;;;4157243;28;20049;-65
2021/06/13 05:43:17;;;;;;;1.80;0.60;;;15.00;99.90;;;;;;4158068;28;20092;-67
2021/06/13 05:45:21;;;;;;;0.90;0.90;;;14.90;99.90;;;;;;4157703;28;20099;-67
2021/06/13 05:47:22;;;;;;;1.00;0.80;;;14.80;99.90;;;;;;4158533;28;20021;-66
2021/06/13 05:49:23;;;;;;;0.87;0.70;;;14.80;99.90;;;;;;4156865;28;20045;-65
2021/06/13 05:51:24;;;;;;;0.90;0.90;;;14.80;99.90;;;;;;4158162;28;20025;-65
2021/06/13 05:53:25;;;;;;;3.80;0.97;;;14.80;99.90;;;;;;4157802;28;20038;-66
2021/06/13 05:55:27;;;;;;;1.00;0.70;;;14.90;99.90;;;;;;4157981;28;20052;-65
2021/06/13 05:57:32;;;;;;;0.60;0.60;;;14.90;99.90;;;;;;4158016;28;20067;-65
2021/06/13 05:59:33;;;;;;;0.90;0.80;;;14.90;99.90;;;;;;4157821;28;20026;-66
2021/06/13 06:01:34;;;;;;;1.90;1.27;;;14.90;99.90;;;;;;4157188;28;20505;-65
2021/06/13 06:03:35;;;;;;;1.50;1.07;;;14.90;99.90;;;;;;4157878;28;20079;-65
2021/06/13 06:05:36;;;;;;;0.83;0.77;;;14.90;99.90;;;;;;4156679;28;20046;-65
2021/06/13 06:07:38;;;;;;;1.40;1.10;;;14.90;99.90;;;;;;4157026;28;20038;-64
2021/06/13 06:09:39;;;;;;;2.87;1.00;;;14.90;99.90;;;;;;4157694;28;20103;-65
2021/06/13 06:11:42;;;;;;;2.97;1.43;;;14.90;99.90;;;;;;4139185;28;20453;-64
2021/06/13 06:13:43;;;;;;;4.63;1.67;;;15.00;99.90;;;;;;4157789;28;20029;-65
2021/06/13 06:15:44;;;;;;;3.00;1.27;;;15.00;99.90;;;;;;4157511;28;20041;-65
2021/06/13 06:17:47;;;;;;;1.53;0.80;;;15.10;99.90;;;;;;4156883;28;20049;-65
2021/06/13 06:19:49;;;;;;;5.00;0.70;;;15.20;99.90;;;;;;4156739;28;20103;-65
2021/06/13 06:21:50;;;;;;;1.80;0.70;;;15.30;99.90;;;;;;4156993;28;20047;-65
2021/06/13 06:23:51;;;;;;;0.80;0.80;;;15.40;99.90;;;;;;4157621;28;20042;-66
2021/06/13 06:25:52;;;;;;;0.70;0.70;;;15.40;99.90;;;;;;4155241;28;20037;-64
2021/06/13 06:27:55;;;;;;;0.70;0.70;;;15.50;99.90;;;;;;4156616;28;20034;-65
2021/06/13 06:29:56;;;;;;;0.90;0.80;;;15.50;99.90;;;;;;4156735;28;20045;-65
2021/06/13 06:31:58;;;;;;;2.13;0.80;;;15.50;99.90;;;;;;4156820;28;20886;-65
2021/06/13 06:33:59;;;;;;;0.70;0.70;;;15.60;99.90;;;;;;4156570;28;20095;-65
2021/06/13 06:36:00;;;;;;;1.95;1.08;;;15.60;99.90;;;;;;4157013;28;20024;-65
2021/06/13 06:38:01;;;;;;;0.70;0.60;;;15.50;99.90;;;;;;4157155;28;20041;-65
2021/06/13 06:40:03;;;;;;;1.67;0.77;;;15.50;99.90;;;;;;4157163;28;20959;-65
2021/06/13 06:42:05;;;;;;;2.70;0.77;;;15.50;99.90;;;;;;4157279;28;20599;-65
2021/06/13 06:44:08;;;;;;;1.10;1.00;;;15.50;99.90;;;;;;4156296;28;20080;-66
2021/06/13 06:46:09;;;;;;;1.00;0.80;;;15.50;99.90;;;;;;4157044;28;20021;-66
2021/06/13 06:48:10;;;;;;;0.97;0.93;;;15.40;99.90;;;;;;4156920;28;20083;-66
2021/06/13 06:50:12;;;;;;;0.70;0.70;;;15.40;99.90;;;;;;4157026;28;20970;-67
2021/06/13 06:52:14;;;;;;;2.90;0.90;;;15.60;99.90;;;;;;4156298;28;20034;-67
2021/06/13 06:54:15;;;;;;;1.80;0.90;;;15.80;99.90;;;;;;4156789;28;20642;-67
2021/06/13 06:56:16;;;;;;;2.30;1.15;;;16.30;99.90;;;;;;4156616;28;20037;-67
2021/06/13 06:58:17;;;;;;;2.47;1.40;;;16.70;99.90;;;;;;4156891;28;20041;-65
2021/06/13 07:00:19;;;;;;;1.50;1.40;;;17.00;99.90;;;;;;4138505;28;20480;-67
2021/06/13 07:02:20;;;;;;;1.58;1.48;;;17.30;99.90;;;;;;4156926;28;20025;-67
2021/06/13 07:04:22;;;;;;;1.80;1.60;;;17.50;99.90;;;;;;4156183;28;20049;-65
2021/06/13 07:06:23;;;;;;;1.60;1.48;;;17.50;99.90;;;;;;4156616;28;20025;-66
2021/06/13 07:08:24;;;;;;;5.07;1.63;;;17.60;99.90;;;;;;4157223;28;20041;-66
2021/06/13 07:10:25;;;;;;;2.80;1.45;;;17.60;99.90;;;;;;4156867;28;20111;-66
2021/06/13 07:12:27;;;;;;;1.45;1.35;;;17.40;99.90;;;;;;4156086;28;20084;-66
2021/06/13 07:14:28;;;;;;;3.28;1.30;;;17.30;99.90;;;;;;4155896;28;20080;-65
2021/06/13 07:16:30;;;;;;;1.65;1.40;;;17.10;99.90;;;;;;4156236;28;20107;-67
2021/06/13 07:18:31;;;;;;;14.07;1.73;;;17.00;99.90;;;;;;4156355;28;20452;-66
2021/06/13 07:20:32;;;;;;;3.60;2.95;;;17.00;99.90;;;;;;4156592;28;20029;-66
2021/06/13 07:22:34;;;;;;;3.58;3.20;;;17.10;99.90;;;;;;4155830;28;20033;-65
2021/06/13 07:24:35;;;;;;;1.90;1.65;;;17.40;99.90;;;;;;4155799;28;20148;-67
2021/06/13 07:26:37;;;;;;;2.13;1.70;;;17.60;99.90;;;;;;4155764;28;20083;-66
2021/06/13 07:28:38;;;;;;;2.67;1.60;;;17.80;99.90;;;;;;4156695;28;20037;-66
2021/06/13 07:30:40;;;;;;;3.40;1.70;;;18.00;99.90;;;;;;4155875;28;20037;-66
2021/06/13 07:32:41;;;;;;;1.90;1.80;;;18.10;99.90;;;;;;4155960;28;20068;-66
2021/06/13 07:34:43;;;;;;;3.08;1.80;;;18.20;99.90;;;;;;4155613;28;20460;-66
2021/06/13 07:36:44;;;;;;;8.10;2.83;;;18.30;99.90;;;;;;4156128;28;20041;-67
2021/06/13 07:38:45;;;;;;;2.80;2.00;;;18.20;99.90;;;;;;4155494;28;20041;-66
2021/06/13 07:40:46;;;;;;;3.78;1.70;;;18.30;99.90;;;;;;4155697;28;20045;-66
2021/06/13 07:42:49;;;;;;;3.30;2.00;;;18.40;99.90;;;;;;4156207;28;20026;-65
2021/06/13 07:44:51;;;;;;;4.40;1.95;;;18.20;99.90;;;;;;4138226;28;20030;-65
2021/06/13 07:46:53;;;;;;;2.28;1.92;;;18.20;99.90;;;;;;4156303;28;20021;-65
2021/06/13 07:48:54;;;;;;;1.90;1.80;;;18.10;99.90;;;;;;4155655;28;20465;-65
2021/06/13 07:50:55;;;;;;;3.63;2.15;;;17.90;99.90;;;;;;4155427;28;20552;-65
2021/06/13 07:52:56;;;;;;;2.22;1.65;;;17.60;99.90;;;;;;4156044;28;20029;-65
2021/06/13 07:54:58;;;;;;;3.08;1.88;;;17.40;99.90;;;;;;4154592;28;20440;-65
2021/06/13 07:56:59;;;;;;;4.70;2.78;;;17.30;99.90;;;;;;4155999;28;20037;-66
2021/06/13 07:59:00;;;;;;;2.15;1.90;;;17.10;99.90;;;;;;4156007;28;20056;-66
2021/06/13 08:01:01;;;;;;;7.10;1.90;;;17.00;99.90;;;;;;4155049;28;20522;-66
2021/06/13 08:03:02;;;;;;;3.20;1.63;;;17.00;99.90;;;;;;4155013;28;20038;-65
2021/06/13 08:05:11;;;;;;;2.97;2.60;;;16.90;99.90;;;;;;4156078;28;20099;-64
2021/06/13 08:07:12;;;;;;;3.08;2.20;;;16.90;99.90;;;;;;4155752;28;20029;-65
2021/06/13 08:09:13;;;;;;;3.00;2.72;;;16.70;99.90;;;;;;4155257;28;20091;-64
2021/06/13 08:11:14;;;;;;;3.95;1.80;;;16.70;99.90;;;;;;4155302;28;20053;-65
2021/06/13 08:13:16;;;;;;;2.58;2.30;;;16.70;99.90;;;;;;4155468;28;20087;-65
2021/06/13 08:15:18;;;;;;;2.55;2.35;;;16.70;99.90;;;;;;4137838;28;20042;-65
2021/06/13 08:17:20;;;;;;;2.95;1.65;;;17.00;99.90;;;;;;4154886;28;20042;-65
2021/06/13 08:19:21;;;;;;;5.22;1.63;;;17.40;99.90;;;;;;4154654;28;20559;-65
2021/06/13 08:21:22;;;;;;;4.35;1.70;;;17.90;99.90;;;;;;4155864;28;20501;-65
2021/06/13 08:23:23;;;;;;;2.50;1.80;;;18.00;99.90;;;;;;4155459;28;20030;-66
2021/06/13 08:25:25;;;;;;;4.20;1.77;;;18.10;99.90;;;;;;4154712;28;20095;-66
2021/06/13 08:27:28;;;;;;;3.38;2.00;;;18.20;99.90;;;;;;4155483;28;20079;-65
2021/06/13 08:29:29;;;;;;;2.88;2.00;;;18.50;99.90;;;;;;4155074;28;20497;-64
2021/06/13 08:31:30;;;;;;;2.08;1.88;;;18.80;99.90;;;;;;4155307;28;20029;-64
2021/06/13 08:33:32;;;;;;;3.92;1.52;;;19.10;99.90;;;;;;4155622;28;20080;-65
2021/06/13 08:35:33;;;;;;;3.97;2.45;;;19.30;99.90;;;;;;4154556;28;20046;-66
2021/06/13 08:37:35;;;;;;;3.10;1.58;;;19.30;99.90;;;;;;4155585;28;20041;-65
2021/06/13 08:39:36;;;;;;;1.90;1.35;;;19.10;99.90;;;;;;4155032;28;20406;-66
2021/06/13 08:41:38;;;;;;;2.92;1.67;;;19.30;99.90;;;;;;4154922;28;20037;-66
2021/06/13 08:43:39;;;;;;;2.75;1.50;;;19.40;99.90;;;;;;4155120;28;20099;-66
2021/06/13 08:45:41;;;;;;;8.82;1.48;;;19.70;99.90;;;;;;4155358;28;20076;-66
2021/06/13 08:47:44;;;;;;;5.85;2.05;;;19.80;99.90;;;;;;4155514;28;20025;-65
2021/06/13 08:49:47;;;;;;;3.42;1.75;;;19.60;99.90;;;;;;4154504;28;20057;-65
2021/06/13 08:51:48;;;;;;;2.17;1.58;;;19.60;99.90;;;;;;4154269;28;20095;-67
2021/06/13 08:53:50;;;;;;;5.55;2.78;;;19.40;99.90;;;;;;4154867;28;20437;-67
2021/06/13 08:55:53;;;;;;;1.70;1.60;;;19.20;99.90;;;;;;4155967;28;20829;-64
2021/06/13 08:57:55;;;;;;;2.15;0.90;;;19.30;99.90;;;;;;4157346;28;20045;-65
2021/06/13 08:59:56;;;;;;;2.78;0.90;;;19.40;99.90;;;;;;4140009;28;20042;-65
2021/06/13 09:01:58;;;;;;;1.10;1.00;;;19.60;99.90;;;;;;4158493;28;20504;-66
2021/06/13 09:04:02;;;;;;;1.80;1.30;;;19.50;99.90;;;;;;4158417;28;20091;-65
2021/06/13 09:06:03;;;;;;;1.13;0.90;;;19.60;99.90;;;;;;4157944;28;20041;-66
2021/06/13 09:08:09;;;;;;;3.53;1.33;;;19.70;99.90;;;;;;4158349;28;20033;-65
2021/06/13 09:10:12;;;;;;;2.85;1.10;;;19.80;99.90;;;;;;4158272;28;20570;-65
2021/06/13 09:12:14;;;;;;;1.15;0.70;;;19.90;99.90;;;;;;4157948;28;20797;-65
2021/06/13 09:14:15;;;;;;;3.90;1.13;;;20.00;99.80;;;;;;4157972;28;20113;-66
2021/06/13 09:16:16;;;;;;;2.45;1.85;;;20.10;98.70;;;;;;4158320;28;20021;-65
2021/06/13 09:18:38;;;;;;;1.20;1.10;;;19.90;98.60;;;;;;4158097;28;20033;-67
2021/06/13 09:20:43;;;;;;;1.02;0.85;;;20.10;98.20;;;;;;4157858;28;20045;-65
2021/06/13 09:23:11;;;;;;;5.82;0.82;;;20.20;98.00;;;;;;4157625;28;20089;-66
2021/06/13 09:25:13;;;;;;;2.95;1.13;;;19.90;94.30;;;;;;4158217;28;20436;-65
2021/06/13 09:27:15;;;;;;;6.60;1.10;;;19.80;96.30;;;;;;4158299;28;20458;-66
2021/06/13 09:29:16;;;;;;;2.55;0.77;;;19.80;96.10;;;;;;4157441;28;20064;-65
2021/06/13 09:31:20;;;;;;;5.97;1.10;;;19.30;93.70;;;;;;4156950;28;20041;-65
2021/06/13 09:33:27;;;;;;;8.57;2.03;;;18.90;94.50;;;;;;4157610;28;20053;-66
2021/06/13 09:35:30;;;;;;;11.27;2.13;;;18.80;96.00;;;;;;4157332;28;20025;-65
2021/06/13 09:37:31;;;;;;;4.40;1.45;;;18.80;96.00;;;;;;4158263;28;20390;-65
2021/06/13 09:39:32;;;;;;;3.95;1.25;;;18.80;95.90;;;;;;4157885;28;20064;-66
2021/06/13 09:41:36;;;;;;;4.53;0.80;;;18.80;96.60;;;;;;4156802;28;20050;-66
2021/06/13 09:43:39;;;;;;;5.28;1.00;;;18.80;97.10;;;;;;4157047;28;20038;-66
2021/06/13 09:45:48;;;;;;;2.28;1.02;;;18.80;97.40;;;;;;4157467;28;20037;-66
2021/06/13 09:48:02;;;;;;;6.45;1.73;;;18.90;97.70;;;;;;4157506;28;20381;-66
2021/06/13 09:50:04;;;;;;;4.20;1.67;;;18.90;97.50;;;;;;4157161;28;20037;-65
2021/06/13 09:52:05;;;;;;;5.07;0.90;;;19.10;98.10;;;;;;4157081;28;20434;-65
2021/06/13 09:54:09;;;;;;;5.13;1.23;;;19.30;98.20;;;;;;4156739;28;20037;-66
2021/06/13 09:56:29;;;;;;;3.83;1.67;;;19.50;98.10;;;;;;4157436;28;20037;-66
2021/06/13 09:58:31;;;;;;;5.72;1.75;;;19.50;97.60;;;;;;4157458;28;20095;-66
2021/06/13 10:00:33;;;;;;;3.20;1.00;;;19.50;97.70;;;;;;4157055;28;20134;-65
2021/06/13 10:02:34;;;;;;;3.53;1.20;;;19.40;97.40;;;;;;4157180;28;20063;-67
2021/06/13 10:04:39;;;;;;;2.53;1.20;;;19.20;97.20;;;;;;4156997;28;20037;-64
2021/06/13 10:06:40;;;;;;;3.75;1.30;;;18.90;96.90;;;;;;4156708;28;20468;-65
2021/06/13 10:08:44;;;;;;;2.78;1.23;;;18.70;96.90;;;;;;4156517;28;20038;-65
2021/06/13 10:10:46;;;;;;;3.13;1.35;;;18.90;97.30;;;;;;4156232;28;20359;-65
2021/06/13 10:12:54;;;;;;;2.42;0.70;;;19.00;97.30;;;;;;4157525;28;20095;-65
2021/06/13 10:14:55;;;;;;;2.90;1.10;;;19.10;96.50;;;;;;4157001;28;20033;-65
2021/06/13 10:16:57;;;;;;;4.03;1.70;;;19.20;96.40;;;;;;4157151;28;20053;-67
2021/06/13 10:18:59;;;;;;;2.63;1.45;;;19.40;96.60;;;;;;4154126;28;20123;-66
2021/06/13 10:21:12;;;;;;;1.73;0.90;;;19.50;96.90;;;;;;4157231;28;20033;-66
2021/06/13 10:23:13;;;;;;;3.22;1.10;;;19.50;96.10;;;;;;4156593;28;20050;-67
2021/06/13 10:25:14;;;;;;;1.92;0.98;;;19.40;96.40;;;;;;4157161;28;20025;-67
2021/06/13 10:27:18;;;;;;;2.92;1.10;;;19.40;96.50;;;;;;4157143;28;20033;-65
2021/06/13 10:29:22;;;;;;;3.08;1.95;;;19.30;96.30;;;;;;4157203;28;20103;-66
2021/06/13 10:31:23;;;;;;;1.23;0.85;;;19.10;96.60;;;;;;4156050;28;20045;-65
2021/06/13 10:33:25;;;;;;;3.58;1.30;;;19.10;96.80;;;;;;4156573;28;20089;-65
2021/06/13 10:35:26;;;;;;;2.08;0.90;;;19.10;96.90;;;;;;4157184;28;20037;-64
2021/06/13 10:37:28;;;;;;;2.10;1.27;;;19.00;97.00;;;;;;4157400;28;20021;-66
2021/06/13 10:39:31;;;;;;;2.15;1.27;;;18.90;97.40;;;;;;4157258;28;20496;-66
2021/06/13 10:41:33;;;;;;;2.30;1.50;;;18.90;97.60;;;;;;4156654;28;20035;-65